ASP weather

Alice Springs Airport
Alice Springs, Northern Territory, Australia

Public forecast

Using degrees Celsius for public forecast. Weather courtesy of forecast.io.

METAR (pilot weather report)

Retrieved 2018/07/18 10:30 UTC (0 seconds ago):

YBAS 181030Z AUTO 28006KT 9999 // NCD 15/M13 Q1018 RF00.0/000.0

TAF (pilot weather forecast)

Retrieved 2018/07/18 06:00 UTC (4 hours ago):

TAF YBAS 180528Z 1806/1906 33006KT CAVOK FM190000 22014KT CAVOK